createdAt,value
2022-11-06T00:02:06.588Z,99998.40
2022-11-06T00:04:34.506Z,99999.66
2022-11-06T00:07:02.297Z,100004.70
2022-11-06T00:09:30.430Z,100004.54
2022-11-06T00:11:58.211Z,100002.17
2022-11-06T00:14:26.198Z,99996.69
2022-11-06T00:16:53.902Z,99994.34
2022-11-06T00:19:22.084Z,99995.10
2022-11-06T00:21:49.866Z,99994.60
2022-11-06T00:24:17.678Z,99999.65
2022-11-06T00:26:49.803Z,100000.52
2022-11-06T00:29:21.070Z,100001.75
2022-11-06T00:31:50.233Z,100007.42
2022-11-06T00:34:18.205Z,100010.14
2022-11-06T00:36:46.139Z,100014.70
2022-11-06T00:39:14.078Z,100017.54
2022-11-06T00:41:42.008Z,100020.97
2022-11-06T00:44:10.214Z,100016.70
2022-11-06T00:46:38.312Z,100020.92
2022-11-06T00:49:06.631Z,100020.15
2022-11-06T00:51:39.376Z,100017.89
2022-11-06T00:54:11.442Z,100017.21
2022-11-06T00:56:40.127Z,100016.11
2022-11-06T00:59:11.773Z,100020.70
2022-11-06T01:01:43.293Z,100025.66
2022-11-06T01:04:14.040Z,100026.23
2022-11-06T01:06:45.652Z,100028.19
2022-11-06T01:09:16.789Z,100026.84
2022-11-06T01:14:38.617Z,100023.60
2022-11-06T01:17:06.712Z,100022.88
2022-11-06T01:19:34.889Z,100023.73
2022-11-06T01:22:03.072Z,100020.33
2022-11-06T01:24:30.991Z,100018.13
2022-11-06T01:27:27.998Z,100018.23
2022-11-06T01:29:47.545Z,100020.08
2022-11-06T01:32:15.415Z,100015.70
2022-11-06T01:34:43.317Z,100014.48
2022-11-06T01:37:14.420Z,100013.83
2022-11-06T01:39:43.212Z,100013.52
2022-11-06T01:42:13.349Z,100012.33
2022-11-06T01:44:41.375Z,100013.18
2022-11-06T01:47:26.314Z,100007.79
2022-11-06T01:49:59.611Z,100008.68
2022-11-06T01:52:30.805Z,100007.72
2022-11-06T01:55:15.590Z,100006.09
2022-11-06T01:57:43.996Z,100008.19
2022-11-06T02:00:13.039Z,100010.77
2022-11-06T02:02:41.654Z,100013.33
2022-11-06T02:05:09.725Z,100016.16
2022-11-06T02:07:39.424Z,100018.96
2022-11-06T02:10:07.989Z,100021.42
2022-11-06T02:13:01.966Z,100026.66
2022-11-06T02:15:37.378Z,100030.20
2022-11-06T02:18:33.021Z,100029.36
2022-11-06T02:21:19.688Z,100032.89
2022-11-06T02:24:12.480Z,100033.24
2022-11-06T02:27:02.194Z,100029.86
2022-11-06T02:29:38.699Z,100027.29
2022-11-06T02:32:12.241Z,100030.09
2022-11-06T02:34:44.036Z,100036.55
2022-11-06T02:37:18.180Z,100038.21
2022-11-06T02:39:49.720Z,100039.48
2022-11-06T02:42:20.194Z,100039.60
2022-11-06T02:44:52.585Z,100038.11
2022-11-06T02:47:24.102Z,100037.52
2022-11-06T02:49:57.686Z,100042.89
2022-11-06T02:52:32.104Z,100047.88
2022-11-06T02:55:18.114Z,100051.27
2022-11-06T02:57:52.531Z,100049.80
2022-11-06T03:00:22.261Z,100046.42
2022-11-06T03:02:56.373Z,100048.17
2022-11-06T03:05:35.996Z,100054.56
2022-11-06T03:08:19.196Z,100053.02
2022-11-06T03:11:01.310Z,100060.65
2022-11-06T03:13:39.531Z,100061.43
2022-11-06T03:16:47.128Z,100062.71
2022-11-06T03:19:27.385Z,100062.45
2022-11-06T03:22:09.120Z,100063.05
2022-11-06T03:24:46.356Z,100066.23
2022-11-06T03:27:20.678Z,100064.76
2022-11-06T03:29:54.381Z,100061.65
2022-11-06T03:32:38.021Z,100062.88
2022-11-06T03:35:09.671Z,100065.99
2022-11-06T03:37:42.869Z,100067.59
2022-11-06T03:40:17.242Z,100067.59
2022-11-06T03:42:48.562Z,100068.09
2022-11-06T03:45:21.552Z,100068.47
2022-11-06T03:48:02.487Z,100070.81
2022-11-06T03:50:39.773Z,100076.57
2022-11-06T03:53:39.688Z,100078.63
2022-11-06T03:56:17.335Z,100081.77
2022-11-06T03:58:48.789Z,100079.11
2022-11-06T04:01:22.514Z,100086.40
2022-11-06T04:04:01.577Z,100092.73
2022-11-06T04:06:38.994Z,100096.20
2022-11-06T04:09:29.512Z,100097.38
2022-11-06T04:12:20.167Z,100094.40
2022-11-06T04:14:52.837Z,100096.48
2022-11-06T04:17:24.332Z,100099.05
2022-11-06T04:19:56.043Z,100098.30
2022-11-06T04:22:42.276Z,100096.77
2022-11-06T04:25:45.162Z,100095.25
2022-11-06T04:28:30.491Z,100098.55
2022-11-06T04:31:23.240Z,100101.77
2022-11-06T04:34:13.327Z,100106.23
2022-11-06T04:37:01.688Z,100108.02
2022-11-06T04:39:40.409Z,100107.99
2022-11-06T04:42:18.804Z,100108.63
2022-11-06T04:44:58.770Z,100107.09
2022-11-06T04:47:27.662Z,100111.05
2022-11-06T04:49:58.974Z,100113.54
2022-11-06T04:52:29.084Z,100111.02
2022-11-06T04:54:59.414Z,100109.30
2022-11-06T04:57:27.349Z,100106.54
2022-11-06T04:59:57.013Z,100103.27
2022-11-06T05:02:25.050Z,100102.64
2022-11-06T05:04:53.212Z,100101.33
2022-11-06T05:07:21.360Z,100103.38
2022-11-06T05:09:49.316Z,100107.89
2022-11-06T05:12:17.281Z,100106.55
2022-11-06T05:14:45.420Z,100112.58
2022-11-06T05:17:13.171Z,100114.70
2022-11-06T05:19:41.260Z,100117.98
2022-11-06T05:22:28.921Z,100123.17
2022-11-06T05:24:56.784Z,100129.20
2022-11-06T05:27:24.651Z,100129.73
2022-11-06T05:29:52.661Z,100132.15
2022-11-06T05:32:20.556Z,100132.73
2022-11-06T05:34:48.404Z,100133.20
2022-11-06T05:37:16.257Z,100137.75
2022-11-06T05:39:44.214Z,100143.08
2022-11-06T05:42:12.037Z,100147.78
2022-11-06T05:44:39.893Z,100147.33
2022-11-06T05:47:07.788Z,100148.41
2022-11-06T05:49:35.709Z,100152.36
2022-11-06T05:52:03.946Z,100155.29
2022-11-06T05:54:31.899Z,100156.48
2022-11-06T05:56:59.862Z,100165.01
2022-11-06T05:59:27.832Z,100170.73
2022-11-06T06:01:56.514Z,100174.80
2022-11-06T06:04:24.605Z,100177.52
2022-11-06T06:06:52.638Z,100176.95
2022-11-06T06:09:20.456Z,100175.54
2022-11-06T06:11:53.125Z,100170.73
2022-11-06T06:14:21.479Z,100170.29
2022-11-06T06:16:49.377Z,100176.37
2022-11-06T06:19:17.237Z,100181.63
2022-11-06T06:21:45.184Z,100189.33
2022-11-06T06:24:13.058Z,100188.95
2022-11-06T06:26:41.082Z,100188.85
2022-11-06T06:29:34.995Z,100194.28
2022-11-06T06:32:04.087Z,100198.89
2022-11-06T06:34:31.897Z,100200.48
2022-11-06T06:36:59.922Z,100206.57
2022-11-06T06:39:27.740Z,100205.64
2022-11-06T06:41:55.735Z,100206.38
2022-11-06T06:44:23.562Z,100206.81
2022-11-06T06:46:51.404Z,100202.48
2022-11-06T06:49:19.304Z,100201.96
2022-11-06T06:51:50.749Z,100201.91
2022-11-06T06:54:18.638Z,100202.81
2022-11-06T06:56:48.711Z,100204.02
2022-11-06T06:59:16.776Z,100206.83
2022-11-06T07:01:45.169Z,100213.82
2022-11-06T07:04:13.416Z,100218.40
2022-11-06T07:06:41.407Z,100219.49
2022-11-06T07:09:09.533Z,100221.67
2022-11-06T07:11:37.413Z,100223.67
2022-11-06T07:14:05.276Z,100226.77
2022-11-06T07:16:33.070Z,100227.35
2022-11-06T07:19:00.920Z,100224.42
2022-11-06T07:21:28.707Z,100229.02
2022-11-06T07:23:56.650Z,100231.86
2022-11-06T07:26:35.081Z,100234.71
2022-11-06T07:29:03.423Z,100232.86
2022-11-06T07:31:31.850Z,100237.06
2022-11-06T07:33:59.844Z,100234.00
2022-11-06T07:36:27.827Z,100228.77
2022-11-06T07:38:55.590Z,100231.36
2022-11-06T07:41:23.592Z,100232.17
2022-11-06T07:43:52.853Z,100234.05
2022-11-06T07:46:23.313Z,100238.91
2022-11-06T07:48:51.137Z,100238.74
2022-11-06T07:51:19.004Z,100237.42
2022-11-06T07:53:46.928Z,100236.94
2022-11-06T07:56:15.036Z,100237.71
2022-11-06T07:58:42.957Z,100236.31
2022-11-06T08:01:18.619Z,100235.51
2022-11-06T08:03:47.044Z,100237.62
2022-11-06T08:06:14.847Z,100246.30
2022-11-06T08:08:42.688Z,100247.52
2022-11-06T08:11:11.997Z,100246.60
2022-11-06T08:13:40.339Z,100245.11
2022-11-06T08:16:13.104Z,100242.98
2022-11-06T08:18:42.490Z,100246.69
2022-11-06T08:21:10.460Z,100248.94
2022-11-06T08:23:38.378Z,100247.13
2022-11-06T08:26:07.410Z,100247.34
2022-11-06T08:28:35.633Z,100246.60
2022-11-06T08:31:05.817Z,100248.00
2022-11-06T08:33:35.671Z,100246.77
2022-11-06T08:36:07.221Z,100247.11
2022-11-06T08:38:36.972Z,100248.55
2022-11-06T08:41:10.253Z,100252.05
2022-11-06T08:43:39.109Z,100250.38
2022-11-06T08:46:08.887Z,100252.55
2022-11-06T08:48:37.172Z,100251.44
2022-11-06T08:51:06.384Z,100247.80
2022-11-06T08:53:36.381Z,100249.52
2022-11-06T08:56:05.007Z,100245.99
2022-11-06T08:58:33.192Z,100245.90
2022-11-06T09:01:01.488Z,100243.35
2022-11-06T09:03:29.351Z,100246.31
2022-11-06T09:05:57.593Z,100245.66
2022-11-06T09:08:25.706Z,100245.12
2022-11-06T09:10:58.324Z,100243.40
2022-11-06T09:13:31.507Z,100245.95
2022-11-06T09:16:00.712Z,100250.34
2022-11-06T09:18:28.806Z,100250.66
2022-11-06T09:20:58.153Z,100254.23
2022-11-06T09:23:26.470Z,100254.80
2022-11-06T09:25:54.388Z,100262.25
2022-11-06T09:28:22.325Z,100261.00
2022-11-06T09:30:50.665Z,100262.87
2022-11-06T09:33:18.828Z,100266.66
2022-11-06T09:35:46.962Z,100266.05
2022-11-06T09:38:17.401Z,100270.20
2022-11-06T09:40:50.175Z,100269.80
2022-11-06T09:43:43.061Z,100271.08
2022-11-06T09:46:34.643Z,100272.46
2022-11-06T09:49:12.535Z,100276.45
2022-11-06T09:52:03.273Z,100276.95
2022-11-06T09:54:38.968Z,100274.17
2022-11-06T09:57:16.008Z,100274.63
2022-11-06T09:59:45.343Z,100276.11
2022-11-06T10:02:37.615Z,100273.74
2022-11-06T10:05:14.620Z,100271.10
2022-11-06T10:07:44.809Z,100272.93
2022-11-06T10:10:19.858Z,100271.61
2022-11-06T10:13:02.949Z,100271.23
2022-11-06T10:15:35.678Z,100266.98
2022-11-06T10:18:25.257Z,100265.91
2022-11-06T10:21:03.047Z,100265.33
2022-11-06T10:23:55.096Z,100263.00
2022-11-06T10:26:42.581Z,100259.92
2022-11-06T10:29:47.951Z,100258.58
2022-11-06T10:32:40.400Z,100256.53
2022-11-06T10:35:20.550Z,100257.27
2022-11-06T10:38:03.734Z,100256.20
2022-11-06T10:40:32.992Z,100251.36
2022-11-06T10:43:22.761Z,100250.83
2022-11-06T10:45:56.766Z,100251.74
2022-11-06T10:48:32.407Z,100254.35
2022-11-06T10:51:28.430Z,100253.05
2022-11-06T10:54:17.911Z,100252.81
2022-11-06T10:56:52.023Z,100252.59
2022-11-06T10:59:20.031Z,100252.11
2022-11-06T11:01:48.428Z,100250.09
2022-11-06T11:04:16.557Z,100248.71
2022-11-06T11:06:44.581Z,100245.75
2022-11-06T11:09:29.984Z,100240.37
2022-11-06T11:11:59.479Z,100237.53
2022-11-06T11:14:30.786Z,100229.91
2022-11-06T11:17:08.085Z,100224.67
2022-11-06T11:19:44.167Z,100219.98
2022-11-06T11:22:22.029Z,100219.58
2022-11-06T11:25:03.882Z,100222.90
2022-11-06T11:27:45.811Z,100219.31
2022-11-06T11:30:22.981Z,100212.08
2022-11-06T11:32:55.491Z,100209.20
2022-11-06T11:35:31.187Z,100207.70
2022-11-06T11:38:11.028Z,100211.58
2022-11-06T11:40:40.300Z,100210.24
2022-11-06T11:43:29.115Z,100208.86
2022-11-06T11:46:05.131Z,100213.30
2022-11-06T11:48:51.488Z,100212.85
2022-11-06T11:51:33.463Z,100210.33
2022-11-06T11:54:06.306Z,100206.48
2022-11-06T11:57:03.750Z,100205.42
2022-11-06T11:59:44.866Z,100206.97
2022-11-06T12:02:23.600Z,100207.95
2022-11-06T12:05:06.698Z,100209.10
2022-11-06T12:07:46.462Z,100211.19
2022-11-06T12:10:27.438Z,100211.36
2022-11-06T12:12:57.666Z,100210.45
2022-11-06T12:15:41.797Z,100210.08
2022-11-06T12:18:17.278Z,100208.05
2022-11-06T12:21:35.465Z,100203.79
2022-11-06T12:24:18.884Z,100204.09
2022-11-06T12:27:08.294Z,100204.34
2022-11-06T12:30:01.765Z,100207.73
2022-11-06T12:32:48.424Z,100210.37
2022-11-06T12:35:30.161Z,100216.82
2022-11-06T12:38:19.445Z,100219.66
2022-11-06T12:40:59.480Z,100216.17
2022-11-06T12:43:50.071Z,100214.11
2022-11-06T12:46:45.480Z,100213.66
2022-11-06T12:49:31.711Z,100217.17
2022-11-06T12:52:05.676Z,100215.96
2022-11-06T12:54:42.225Z,100220.58
2022-11-06T12:57:34.012Z,100222.84
2022-11-06T13:00:20.797Z,100225.30
2022-11-06T13:03:04.289Z,100226.48
2022-11-06T13:05:53.020Z,100230.75
2022-11-06T13:08:23.902Z,100231.40
2022-11-06T13:11:05.876Z,100227.66
2022-11-06T13:13:56.935Z,100229.41
2022-11-06T13:16:52.649Z,100230.88
2022-11-06T13:20:01.688Z,100231.48
2022-11-06T13:23:05.014Z,100232.31
2022-11-06T13:26:08.891Z,100229.22
2022-11-06T13:28:58.563Z,100227.81
2022-11-06T13:31:38.929Z,100226.49
2022-11-06T13:34:11.325Z,100226.63
2022-11-06T13:36:40.011Z,100228.20
2022-11-06T13:39:20.039Z,100229.83
2022-11-06T13:41:47.849Z,100232.47
2022-11-06T13:44:17.077Z,100232.66
2022-11-06T13:46:52.815Z,100232.19
2022-11-06T13:49:28.312Z,100237.29
2022-11-06T13:52:16.483Z,100236.84
2022-11-06T13:55:05.057Z,100237.30
2022-11-06T13:58:06.158Z,100235.89
2022-11-06T14:00:52.085Z,100237.59
2022-11-06T14:03:58.726Z,100234.12
2022-11-06T14:06:30.183Z,100233.98
2022-11-06T14:09:06.949Z,100235.34
2022-11-06T14:11:45.212Z,100240.98
2022-11-06T14:14:21.986Z,100241.34
2022-11-06T14:17:15.901Z,100249.16
2022-11-06T14:19:50.887Z,100249.70
2022-11-06T14:22:30.072Z,100256.23
2022-11-06T14:25:02.051Z,100258.09
2022-11-06T14:27:30.366Z,100259.26
2022-11-06T14:29:58.368Z,100263.65
2022-11-06T14:32:47.424Z,100267.28
2022-11-06T14:35:31.322Z,100268.93
2022-11-06T14:38:30.146Z,100266.39
2022-11-06T14:40:58.810Z,100267.50
2022-11-06T14:43:32.624Z,100267.41
2022-11-06T14:46:18.000Z,100268.13
2022-11-06T14:48:50.587Z,100266.60
2022-11-06T14:51:25.318Z,100270.02
2022-11-06T14:53:57.422Z,100269.81
2022-11-06T14:56:27.397Z,100270.67
2022-11-06T14:58:58.190Z,100272.10
2022-11-06T15:01:26.032Z,100271.92
2022-11-06T15:04:29.312Z,100276.27
2022-11-06T15:07:07.999Z,100278.44
2022-11-06T15:09:39.160Z,100278.26
2022-11-06T15:12:08.429Z,100277.51
2022-11-06T15:14:36.320Z,100278.86
2022-11-06T15:17:12.200Z,100280.52
2022-11-06T15:19:48.549Z,100281.73
2022-11-06T15:22:27.947Z,100277.62
2022-11-06T15:25:03.033Z,100282.23
2022-11-06T15:27:38.977Z,100282.71
2022-11-06T15:30:17.419Z,100285.75
2022-11-06T15:32:48.443Z,100288.08
2022-11-06T15:35:30.984Z,100288.34
2022-11-06T15:38:06.330Z,100286.73
2022-11-06T15:40:39.882Z,100288.42
2022-11-06T15:43:20.236Z,100291.26
2022-11-06T15:46:22.468Z,100294.86
2022-11-06T15:49:16.780Z,100296.55
2022-11-06T15:52:02.319Z,100296.27
2022-11-06T15:54:41.478Z,100296.20
2022-11-06T15:57:27.875Z,100295.75
2022-11-06T16:00:09.467Z,100293.80
2022-11-06T16:02:48.805Z,100294.19
2022-11-06T16:05:18.617Z,100297.30
2022-11-06T16:07:47.818Z,100306.41
2022-11-06T16:10:17.676Z,100309.30
2022-11-06T16:12:48.244Z,100310.33
2022-11-06T16:15:50.368Z,100313.51
2022-11-06T16:18:41.022Z,100320.70
2022-11-06T16:21:21.141Z,100327.39
2022-11-06T16:24:15.467Z,100329.09
2022-11-06T16:26:51.192Z,100329.76
2022-11-06T16:29:30.812Z,100336.96
2022-11-06T16:32:02.512Z,100344.61
2022-11-06T16:34:30.434Z,100347.41
2022-11-06T16:37:01.695Z,100348.97
2022-11-06T16:39:49.156Z,100349.20
2022-11-06T16:42:33.079Z,100353.06
2022-11-06T16:45:17.495Z,100360.13
2022-11-06T16:48:11.443Z,100366.73
2022-11-06T16:50:46.633Z,100370.65
2022-11-06T16:53:23.578Z,100372.70
2022-11-06T16:55:57.653Z,100376.95
2022-11-06T16:58:27.810Z,100376.60
2022-11-06T17:01:02.257Z,100378.44
2022-11-06T17:03:48.060Z,100378.96
2022-11-06T17:06:23.689Z,100382.98
2022-11-06T17:09:28.200Z,100385.55
2022-11-06T17:11:58.790Z,100386.40
2022-11-06T17:14:27.873Z,100383.55
2022-11-06T17:17:01.465Z,100384.99
2022-11-06T17:19:30.233Z,100383.01
2022-11-06T17:21:58.487Z,100386.07
2022-11-06T17:24:42.386Z,100388.20
2022-11-06T17:27:10.327Z,100389.45
2022-11-06T17:29:38.884Z,100391.38
2022-11-06T17:32:06.894Z,100389.06
2022-11-06T17:34:34.822Z,100385.48
2022-11-06T17:37:02.858Z,100384.60
2022-11-06T17:39:31.322Z,100387.05
2022-11-06T17:41:59.102Z,100385.30
2022-11-06T17:44:27.056Z,100385.98
2022-11-06T17:46:55.162Z,100386.49
2022-11-06T17:49:23.218Z,100391.40
2022-11-06T17:51:53.699Z,100394.73
2022-11-06T17:54:26.878Z,100396.05
2022-11-06T17:56:56.940Z,100396.17
2022-11-06T17:59:26.106Z,100399.13
2022-11-06T18:01:55.222Z,100400.83
2022-11-06T18:04:25.156Z,100400.70
2022-11-06T18:06:54.587Z,100402.88
2022-11-06T18:09:23.239Z,100406.16
2022-11-06T18:11:53.742Z,100404.10
2022-11-06T18:14:23.301Z,100406.14
2022-11-06T18:16:51.824Z,100407.91
2022-11-06T18:19:22.727Z,100405.89
2022-11-06T18:21:50.563Z,100406.77
2022-11-06T18:24:18.476Z,100411.93
2022-11-06T18:26:46.455Z,100408.74
2022-11-06T18:29:14.706Z,100407.51
2022-11-06T18:31:42.977Z,100413.32
2022-11-06T18:34:20.127Z,100420.23
2022-11-06T18:36:50.473Z,100426.98
2022-11-06T18:39:19.759Z,100427.20
2022-11-06T18:41:47.763Z,100429.76
2022-11-06T18:44:19.218Z,100429.27
2022-11-06T18:46:47.651Z,100428.65
2022-11-06T18:49:15.496Z,100431.01
2022-11-06T18:51:43.824Z,100431.37
2022-11-06T18:54:13.015Z,100434.87
2022-11-06T18:56:41.462Z,100432.07
2022-11-06T18:59:14.694Z,100430.94
2022-11-06T19:01:42.887Z,100435.55
2022-11-06T19:04:11.134Z,100432.05
2022-11-06T19:06:40.306Z,100435.91
2022-11-06T19:09:09.931Z,100434.77
2022-11-06T19:11:38.517Z,100434.36
2022-11-06T19:14:07.056Z,100436.96
2022-11-06T19:16:35.324Z,100438.48
2022-11-06T19:19:05.698Z,100439.93
2022-11-06T19:21:34.769Z,100441.71
2022-11-06T19:24:05.678Z,100443.02
2022-11-06T19:26:36.118Z,100442.52
2022-11-06T19:29:08.125Z,100440.50
2022-11-06T19:31:37.391Z,100440.00
2022-11-06T19:34:07.111Z,100441.98
2022-11-06T19:36:36.287Z,100440.17
2022-11-06T19:39:04.739Z,100436.94
2022-11-06T19:41:33.371Z,100438.15
2022-11-06T19:44:01.306Z,100439.67
2022-11-06T19:46:35.111Z,100443.35
2022-11-06T19:49:05.518Z,100446.55
2022-11-06T19:51:34.647Z,100451.84
2022-11-06T19:54:02.941Z,100453.61
2022-11-06T19:56:30.901Z,100455.27
2022-11-06T19:58:59.307Z,100453.17
2022-11-06T20:01:27.493Z,100450.20
2022-11-06T20:03:55.619Z,100446.92
2022-11-06T20:06:23.780Z,100446.62
2022-11-06T20:08:51.733Z,100450.02
2022-11-06T20:11:20.071Z,100453.20
2022-11-06T20:13:48.139Z,100456.08
2022-11-06T20:16:19.131Z,100460.70
2022-11-06T20:18:55.831Z,100457.70
2022-11-06T20:21:26.388Z,100458.57
2022-11-06T20:23:55.945Z,100457.96
2022-11-06T20:26:24.588Z,100458.11
2022-11-06T20:28:52.527Z,100459.56
2022-11-06T20:31:21.793Z,100466.85
2022-11-06T20:33:50.466Z,100468.29
2022-11-06T20:36:23.030Z,100467.66
2022-11-06T20:38:53.777Z,100467.39
2022-11-06T20:41:22.946Z,100463.61
2022-11-06T20:43:51.974Z,100464.09
2022-11-06T20:46:21.303Z,100465.00
2022-11-06T20:48:49.913Z,100463.99
2022-11-06T20:51:25.012Z,100463.98
2022-11-06T20:53:53.114Z,100461.07
2022-11-06T20:56:25.215Z,100462.19
2022-11-06T20:58:55.366Z,100460.92
2022-11-06T21:01:28.532Z,100458.27
2022-11-06T21:03:57.657Z,100454.98
2022-11-06T21:06:27.457Z,100453.55
2022-11-06T21:08:56.085Z,100450.94
2022-11-06T21:11:26.711Z,100449.54
2022-11-06T21:13:54.842Z,100453.96
2022-11-06T21:16:28.855Z,100458.10
2022-11-06T21:18:59.261Z,100457.33
2022-11-06T21:21:29.731Z,100458.13
2022-11-06T21:23:57.715Z,100461.90
2022-11-06T21:26:29.145Z,100462.55
2022-11-06T21:28:57.751Z,100466.27
2022-11-06T21:31:27.704Z,100467.10
2022-11-06T21:33:57.663Z,100471.28
2022-11-06T21:36:31.487Z,100475.77
2022-11-06T21:39:02.240Z,100481.83
2022-11-06T21:41:31.656Z,100485.36
2022-11-06T21:43:59.990Z,100489.02
2022-11-06T21:46:28.740Z,100488.65
2022-11-06T21:48:57.229Z,100493.17
2022-11-06T21:51:28.818Z,100494.08
2022-11-06T21:54:15.677Z,100492.71
2022-11-06T21:56:44.450Z,100495.27
2022-11-06T21:59:14.135Z,100491.73
2022-11-06T22:01:43.299Z,100495.32
2022-11-06T22:04:11.534Z,100499.10
2022-11-06T22:06:43.275Z,100500.28
2022-11-06T22:09:12.801Z,100501.19
2022-11-06T22:11:43.656Z,100500.28
2022-11-06T22:14:14.474Z,100500.67
2022-11-06T22:16:43.335Z,100501.84
2022-11-06T22:19:12.250Z,100500.99
2022-11-06T22:21:41.102Z,100499.75
2022-11-06T22:24:11.872Z,100501.81
2022-11-06T22:26:40.876Z,100502.41
2022-11-06T22:29:12.330Z,100498.44
2022-11-06T22:31:40.952Z,100497.83
2022-11-06T22:34:10.731Z,100494.88
2022-11-06T22:36:39.870Z,100494.08
2022-11-06T22:39:10.400Z,100494.83
2022-11-06T22:41:39.490Z,100494.77
2022-11-06T22:44:08.260Z,100494.09
2022-11-06T22:46:36.414Z,100490.69
2022-11-06T22:49:05.365Z,100492.75
2022-11-06T22:51:34.240Z,100495.92
2022-11-06T22:54:03.508Z,100501.27
2022-11-06T22:56:32.544Z,100505.96
2022-11-06T22:59:03.731Z,100511.91
2022-11-06T23:01:36.085Z,100510.33
2022-11-06T23:04:15.000Z,100514.93
2022-11-06T23:06:46.262Z,100522.27
2022-11-06T23:09:14.774Z,100522.38
2022-11-06T23:11:45.626Z,100520.27
2022-11-06T23:14:13.526Z,100517.38
2022-11-06T23:17:00.212Z,100513.98
2022-11-06T23:19:30.222Z,100515.46
2022-11-06T23:22:16.623Z,100516.70
2022-11-06T23:24:47.156Z,100517.09
2022-11-06T23:27:15.294Z,100525.56
2022-11-06T23:29:43.301Z,100526.34
2022-11-06T23:32:12.250Z,100523.86
2022-11-06T23:34:40.126Z,100522.67
2022-11-06T23:37:08.989Z,100523.17
2022-11-06T23:39:36.753Z,100522.38
2022-11-06T23:42:05.041Z,100522.66
2022-11-06T23:44:53.311Z,100528.68
2022-11-06T23:47:21.199Z,100533.80
2022-11-06T23:49:50.125Z,100535.73
2022-11-06T23:52:19.435Z,100537.54
2022-11-06T23:54:47.935Z,100538.36
2022-11-06T23:57:16.824Z,100538.52
2022-11-06T23:59:44.680Z,100541.52
